Time;durP1;ratioP1;P1;durP2;ratioP2;P2;SDS_P1;SDS_P2;PMS_P1;PMS_P2;Temp;Humidity;BMP_temperature;BMP_pressure;BME280_temperature;BME280_humidity;BME280_pressure;Samples;Min_cycle;Max_cycle;Signal;HPM_P1;HPM_P2
2022/03/28 00:01:24;;;;;;;28.15;19.10;;;13.20;49.20;;;;;;5056431;28;20443;-52
2022/03/28 00:03:49;;;;;;;25.02;17.65;;;13.10;53.50;;;;;;5056557;28;20017;-49
2022/03/28 00:06:15;;;;;;;30.33;18.70;;;13.10;50.80;;;;;;5056427;28;20546;-52
2022/03/28 00:08:41;;;;;;;28.00;19.05;;;13.10;50.10;;;;;;5056533;28;20056;-49
2022/03/28 00:11:07;;;;;;;27.58;19.02;;;13.20;51.10;;;;;;5056235;28;20076;-50
2022/03/28 00:13:34;;;;;;;26.52;18.38;;;13.20;51.70;;;;;;5055970;28;20029;-50
2022/03/28 00:16:00;;;;;;;28.58;19.48;;;13.20;50.20;;;;;;5056772;28;20025;-47
2022/03/28 00:18:26;;;;;;;27.45;18.90;;;13.20;51.20;;;;;;5056541;28;20128;-48
2022/03/28 00:20:53;;;;;;;26.42;19.42;;;13.20;51.20;;;;;;5056318;28;20036;-50
2022/03/28 00:23:19;;;;;;;29.25;20.33;;;13.20;54.60;;;;;;5056678;28;20017;-48
2022/03/28 00:25:46;;;;;;;25.80;18.77;;;13.20;53.60;;;;;;5011445;28;1295807;-50
2022/03/28 00:28:12;;;;;;;27.00;19.00;;;13.20;53.60;;;;;;5057049;28;20525;-50
2022/03/28 00:30:38;;;;;;;26.75;18.67;;;13.20;53.60;;;;;;5057251;28;20024;-54
2022/03/28 00:33:05;;;;;;;27.42;19.45;;;13.20;53.80;;;;;;5057424;28;20372;-48
2022/03/28 00:35:31;;;;;;;29.55;19.10;;;13.20;53.60;;;;;;5056866;28;20484;-53
2022/03/28 00:37:57;;;;;;;25.63;18.05;;;13.20;52.10;;;;;;5057040;28;20028;-52
2022/03/28 00:40:27;;;;;;;30.95;18.88;;;13.20;53.20;;;;;;5057198;28;20548;-51
2022/03/28 00:42:54;;;;;;;29.10;19.83;;;13.10;54.60;;;;;;5056970;28;20025;-50
2022/03/28 00:45:20;;;;;;;28.15;19.50;;;13.10;54.40;;;;;;5057055;28;20035;-49
2022/03/28 00:47:46;;;;;;;25.75;18.63;;;13.10;55.80;;;;;;5056901;28;20443;-51
2022/03/28 00:50:12;;;;;;;27.35;18.65;;;13.10;52.80;;;;;;5057087;28;20021;-52
2022/03/28 00:52:39;;;;;;;29.70;19.40;;;13.10;53.30;;;;;;5056904;28;20029;-48
2022/03/28 00:55:07;;;;;;;28.60;19.88;;;13.10;53.20;;;;;;5057040;28;20040;-51
2022/03/28 00:57:33;;;;;;;28.77;19.02;;;13.10;54.40;;;;;;5056895;28;20033;-48
2022/03/28 01:00:00;;;;;;;28.10;19.55;;;13.10;55.60;;;;;;5056954;28;20524;-52
2022/03/28 01:02:27;;;;;;;29.65;19.63;;;13.10;54.40;;;;;;5056751;28;20083;-51
2022/03/28 01:04:52;;;;;;;27.80;18.67;;;13.10;54.80;;;;;;5056940;28;20025;-52
2022/03/28 01:07:19;;;;;;;25.90;18.90;;;13.00;56.00;;;;;;5056533;28;20077;-50
2022/03/28 01:09:45;;;;;;;29.08;19.60;;;13.00;54.80;;;;;;5056696;28;20401;-51
2022/03/28 01:12:11;;;;;;;29.45;19.92;;;13.00;55.10;;;;;;5056780;28;20040;-50
2022/03/28 01:14:38;;;;;;;29.00;19.40;;;13.00;56.40;;;;;;5056853;28;20048;-48
2022/03/28 01:19:54;;;;;;;29.60;18.92;;;12.90;55.70;;;;;;5056843;28;20113;-48
2022/03/28 01:22:20;;;;;;;25.17;18.05;;;12.90;58.30;;;;;;5056535;28;20032;-48
2022/03/28 01:24:46;;;;;;;29.02;19.17;;;12.90;57.90;;;;;;5059703;28;20041;-48
2022/03/28 01:27:14;;;;;;;27.60;18.65;;;12.90;56.40;;;;;;5060317;28;20067;-52
2022/03/28 01:29:44;;;;;;;28.92;19.48;;;12.90;58.00;;;;;;5059918;28;20043;-49
2022/03/28 01:32:11;;;;;;;25.60;17.35;;;12.90;54.70;;;;;;5059970;28;20029;-50
2022/03/28 01:34:37;;;;;;;25.50;17.80;;;12.90;55.80;;;;;;5060031;28;20029;-47
2022/03/28 01:37:03;;;;;;;26.70;18.10;;;12.90;56.30;;;;;;5060193;28;20365;-51
2022/03/28 01:39:29;;;;;;;28.80;19.42;;;12.90;55.10;;;;;;5060251;28;20033;-50
2022/03/28 01:41:55;;;;;;;29.85;18.98;;;12.90;54.10;;;;;;5059838;28;20455;-48
2022/03/28 01:44:20;;;;;;;26.98;17.25;;;12.90;55.20;;;;;;5059952;28;20025;-47
2022/03/28 01:46:48;;;;;;;27.65;18.98;;;12.90;55.10;;;;;;5059877;28;20051;-49
2022/03/28 01:49:15;;;;;;;30.52;19.45;;;12.90;55.60;;;;;;5059780;28;20027;-50
2022/03/28 01:51:41;;;;;;;27.45;18.45;;;12.90;52.20;;;;;;5059942;28;20070;-49
2022/03/28 01:54:07;;;;;;;26.42;18.95;;;12.90;53.60;;;;;;5059681;28;20112;-48
2022/03/28 01:56:34;;;;;;;28.73;19.23;;;12.90;53.80;;;;;;5059603;28;20488;-52
2022/03/28 01:59:01;;;;;;;28.35;17.73;;;12.90;54.40;;;;;;5058121;28;20040;-54
2022/03/28 02:01:27;;;;;;;25.23;16.88;;;12.80;53.80;;;;;;5059406;28;20036;-49
2022/03/28 02:03:52;;;;;;;26.35;18.13;;;12.80;55.70;;;;;;5059628;28;20021;-50
2022/03/28 02:06:18;;;;;;;28.70;18.02;;;12.80;55.30;;;;;;5059347;28;20443;-48
2022/03/28 02:08:44;;;;;;;25.58;17.70;;;12.70;56.00;;;;;;5059736;28;20021;-50
2022/03/28 02:11:10;;;;;;;27.77;18.00;;;12.70;54.80;;;;;;5059528;28;20025;-50
2022/03/28 02:13:36;;;;;;;26.13;18.00;;;12.60;56.30;;;;;;5059642;28;20392;-48
2022/03/28 02:16:02;;;;;;;28.85;17.83;;;12.60;56.20;;;;;;5059444;28;20021;-50
2022/03/28 02:18:28;;;;;;;27.00;17.10;;;12.50;57.30;;;;;;5059400;28;20534;-47
2022/03/28 02:20:54;;;;;;;24.92;17.73;;;12.50;55.70;;;;;;5059393;28;20020;-47
2022/03/28 02:23:21;;;;;;;24.75;17.40;;;12.40;56.10;;;;;;5059297;28;20028;-48
2022/03/28 02:25:47;;;;;;;23.95;16.33;;;12.40;55.20;;;;;;5058955;28;20047;-49
2022/03/28 02:28:13;;;;;;;24.27;17.17;;;12.30;54.70;;;;;;5059034;28;20076;-50
2022/03/28 02:30:39;;;;;;;28.70;18.48;;;12.30;55.40;;;;;;5059418;28;20021;-49
2022/03/28 02:33:06;;;;;;;25.15;18.05;;;12.30;57.30;;;;;;5059118;28;20450;-51
2022/03/28 02:35:33;;;;;;;24.55;17.10;;;12.20;54.30;;;;;;5057790;28;20082;-46
2022/03/28 02:38:02;;;;;;;24.65;16.52;;;12.20;55.10;;;;;;5058678;28;20067;-48
2022/03/28 02:40:32;;;;;;;23.27;15.93;;;12.10;55.60;;;;;;5059018;28;20028;-52
2022/03/28 02:42:59;;;;;;;26.70;18.20;;;12.10;56.70;;;;;;5058844;28;20036;-52
2022/03/28 02:45:27;;;;;;;22.38;17.02;;;12.00;53.20;;;;;;5058812;28;20028;-49
2022/03/28 02:47:53;;;;;;;25.60;17.02;;;12.00;55.00;;;;;;5058603;28;20044;-49
2022/03/28 02:50:18;;;;;;;25.60;17.92;;;11.90;55.20;;;;;;5058646;28;20025;-49
2022/03/28 02:52:44;;;;;;;25.25;17.05;;;11.90;56.30;;;;;;5058701;28;20017;-49
2022/03/28 02:55:10;;;;;;;27.60;18.30;;;11.80;55.90;;;;;;5058663;28;20055;-52
2022/03/28 02:57:36;;;;;;;24.65;17.00;;;11.80;56.00;;;;;;5058452;28;20580;-49
2022/03/28 03:00:07;;;;;;;23.63;16.48;;;11.80;57.90;;;;;;5058219;28;20476;-48
2022/03/28 03:02:34;;;;;;;26.52;17.42;;;11.80;56.70;;;;;;5058433;28;20029;-49
2022/03/28 03:05:00;;;;;;;25.92;17.70;;;11.70;58.70;;;;;;5058741;28;20042;-50
2022/03/28 03:07:26;;;;;;;26.25;16.98;;;11.70;59.40;;;;;;5058478;28;20499;-48
2022/03/28 03:09:53;;;;;;;26.25;16.75;;;11.60;57.10;;;;;;5058407;28;20017;-48
2022/03/28 03:12:19;;;;;;;24.13;16.55;;;11.70;54.70;;;;;;5058134;28;20024;-48
2022/03/28 03:14:45;;;;;;;25.50;17.30;;;11.60;57.60;;;;;;5058198;28;20096;-52
2022/03/28 03:17:11;;;;;;;23.02;15.57;;;11.60;58.40;;;;;;5058239;28;20523;-48
2022/03/28 03:19:39;;;;;;;28.30;18.23;;;11.60;58.20;;;;;;5058082;28;20062;-50
2022/03/28 03:22:06;;;;;;;26.60;18.20;;;11.50;57.20;;;;;;5058089;28;20036;-50
2022/03/28 03:24:32;;;;;;;25.55;16.50;;;11.50;58.80;;;;;;5057627;28;20483;-49
2022/03/28 03:26:58;;;;;;;26.52;17.48;;;11.50;56.90;;;;;;5058089;28;20156;-49
2022/03/28 03:29:24;;;;;;;24.05;16.08;;;11.50;57.40;;;;;;5057815;28;20017;-50
2022/03/28 03:31:50;;;;;;;24.38;16.75;;;11.50;59.20;;;;;;5057754;28;20029;-48
2022/03/28 03:34:15;;;;;;;23.52;15.98;;;11.50;58.50;;;;;;5057599;28;20025;-49
2022/03/28 03:36:41;;;;;;;25.90;16.88;;;11.40;56.80;;;;;;5057591;28;20041;-51
2022/03/28 03:39:07;;;;;;;25.45;16.25;;;11.40;58.30;;;;;;5057884;28;20031;-52
2022/03/28 03:41:33;;;;;;;26.50;17.33;;;11.30;58.90;;;;;;5057572;28;20033;-51
2022/03/28 03:43:58;;;;;;;24.35;16.27;;;11.30;60.20;;;;;;5057864;28;20032;-48
2022/03/28 03:46:24;;;;;;;24.27;17.13;;;11.30;59.30;;;;;;5057837;28;20032;-48
2022/03/28 03:48:50;;;;;;;22.17;15.15;;;11.30;58.20;;;;;;5057446;28;20021;-49
2022/03/28 03:51:16;;;;;;;23.58;16.05;;;11.30;57.80;;;;;;5057800;28;20175;-50
2022/03/28 03:53:42;;;;;;;22.85;16.42;;;11.20;58.60;;;;;;5057679;28;20443;-50
2022/03/28 03:56:07;;;;;;;25.38;16.90;;;11.10;58.20;;;;;;5057724;28;20025;-50
2022/03/28 03:58:33;;;;;;;26.80;17.77;;;11.10;57.40;;;;;;5057469;28;20381;-51
2022/03/28 04:00:59;;;;;;;24.45;16.65;;;11.10;57.50;;;;;;5057621;28;20036;-51
2022/03/28 04:03:25;;;;;;;27.80;18.15;;;11.10;58.20;;;;;;5057361;28;20091;-49
2022/03/28 04:05:50;;;;;;;24.08;16.52;;;11.10;61.30;;;;;;5057546;28;20498;-48
2022/03/28 04:08:16;;;;;;;23.55;16.30;;;11.10;60.80;;;;;;5057542;28;20021;-51
2022/03/28 04:10:45;;;;;;;26.23;17.02;;;11.10;60.20;;;;;;5057521;28;20500;-50
2022/03/28 04:13:11;;;;;;;23.25;16.25;;;11.10;60.40;;;;;;5057265;28;20526;-50
2022/03/28 04:15:38;;;;;;;23.60;15.02;;;11.00;61.00;;;;;;5057304;28;20029;-47
2022/03/28 04:18:04;;;;;;;23.00;15.52;;;11.00;58.00;;;;;;5057208;28;20538;-52
2022/03/28 04:20:32;;;;;;;30.02;16.17;;;10.90;60.10;;;;;;5057252;28;20025;-48
2022/03/28 04:22:58;;;;;;;24.05;15.65;;;11.00;59.00;;;;;;5057241;28;20039;-50
2022/03/28 04:25:24;;;;;;;24.52;15.68;;;11.00;58.30;;;;;;5056969;28;20447;-49
2022/03/28 04:27:50;;;;;;;21.58;15.40;;;11.00;61.00;;;;;;5057164;28;20108;-50
2022/03/28 04:30:16;;;;;;;23.67;16.25;;;11.00;60.00;;;;;;5057267;28;20044;-51
2022/03/28 04:32:42;;;;;;;21.45;15.00;;;11.00;60.10;;;;;;5057292;28;20033;-48
2022/03/28 04:35:10;;;;;;;21.90;14.80;;;10.90;61.00;;;;;;5057115;28;20017;-49
2022/03/28 04:37:37;;;;;;;22.83;15.45;;;10.90;59.50;;;;;;5057246;28;20366;-48
2022/03/28 04:40:06;;;;;;;21.77;15.18;;;10.90;61.20;;;;;;5057044;28;20029;-48
2022/03/28 04:42:32;;;;;;;25.17;16.85;;;10.90;58.50;;;;;;5057231;28;20477;-47
2022/03/28 04:44:58;;;;;;;23.00;15.55;;;10.90;60.60;;;;;;5057185;28;20029;-49
2022/03/28 04:47:24;;;;;;;25.90;17.13;;;10.90;61.40;;;;;;5056927;28;20079;-51
2022/03/28 04:49:50;;;;;;;24.10;17.35;;;10.90;60.70;;;;;;5057193;28;20021;-49
2022/03/28 04:52:15;;;;;;;24.17;16.25;;;10.90;60.50;;;;;;5057300;28;20451;-51
2022/03/28 04:54:41;;;;;;;23.63;16.00;;;10.90;60.00;;;;;;5056871;28;20056;-47
2022/03/28 04:57:07;;;;;;;26.50;17.52;;;10.90;60.40;;;;;;5056857;28;20087;-48
2022/03/28 04:59:34;;;;;;;24.30;16.25;;;10.90;61.10;;;;;;5060065;28;20029;-50
2022/03/28 05:02:00;;;;;;;24.70;16.42;;;10.90;59.70;;;;;;5060184;28;20025;-52
2022/03/28 05:04:26;;;;;;;25.70;17.08;;;10.90;59.60;;;;;;5060673;28;20021;-49
2022/03/28 05:06:52;;;;;;;25.25;17.63;;;10.90;58.20;;;;;;5060751;28;20112;-49
2022/03/28 05:09:18;;;;;;;24.13;16.77;;;10.90;61.00;;;;;;5060487;28;20131;-50
2022/03/28 05:11:44;;;;;;;26.33;18.52;;;10.90;61.70;;;;;;5060917;28;20380;-47
2022/03/28 05:14:10;;;;;;;24.15;16.25;;;10.90;62.70;;;;;;5060451;28;20481;-50
2022/03/28 05:16:36;;;;;;;26.50;17.30;;;10.90;62.60;;;;;;5060615;28;20066;-49
2022/03/28 05:19:03;;;;;;;27.27;17.38;;;10.90;60.40;;;;;;5060482;28;20025;-47
2022/03/28 05:21:29;;;;;;;24.33;17.38;;;10.90;62.10;;;;;;5060513;28;20036;-50
2022/03/28 05:23:54;;;;;;;27.25;18.20;;;10.90;63.00;;;;;;5060217;28;20018;-49
2022/03/28 05:26:20;;;;;;;24.42;17.50;;;11.00;62.20;;;;;;5059908;28;20052;-51
2022/03/28 05:28:46;;;;;;;26.33;17.98;;;11.00;62.40;;;;;;5060405;28;20013;-52
2022/03/28 05:31:12;;;;;;;26.35;17.70;;;11.00;62.30;;;;;;5060122;28;20025;-48
2022/03/28 05:33:38;;;;;;;27.13;18.13;;;11.00;62.00;;;;;;5059942;28;20535;-49
2022/03/28 05:36:05;;;;;;;26.98;17.63;;;11.00;62.10;;;;;;5060296;28;20039;-52
2022/03/28 05:38:31;;;;;;;24.55;17.30;;;11.10;62.70;;;;;;5060149;28;20021;-49
2022/03/28 05:40:57;;;;;;;24.30;18.10;;;11.10;61.30;;;;;;5059641;28;20021;-51
2022/03/28 05:43:24;;;;;;;22.33;16.17;;;11.10;60.90;;;;;;5059920;28;20495;-50
2022/03/28 05:45:52;;;;;;;28.02;17.77;;;11.10;61.60;;;;;;5059784;28;20025;-50
2022/03/28 05:48:19;;;;;;;25.17;17.38;;;11.10;61.20;;;;;;5059741;28;20025;-48
2022/03/28 05:50:46;;;;;;;26.95;17.45;;;11.10;61.00;;;;;;5058425;28;20033;-49
2022/03/28 05:53:13;;;;;;;26.27;16.80;;;11.10;61.10;;;;;;5058501;28;20385;-50
2022/03/28 05:55:43;;;;;;;26.15;16.98;;;11.10;61.90;;;;;;5059816;28;20100;-47
2022/03/28 05:58:10;;;;;;;25.73;16.95;;;11.10;60.90;;;;;;5059765;28;20025;-48
2022/03/28 06:00:37;;;;;;;23.67;16.83;;;11.10;61.90;;;;;;5059635;28;20040;-48
2022/03/28 06:03:04;;;;;;;28.20;17.52;;;11.10;61.40;;;;;;5059205;28;20025;-49
2022/03/28 06:05:31;;;;;;;23.05;17.33;;;11.10;62.50;;;;;;5059575;28;20049;-48
2022/03/28 06:07:57;;;;;;;25.23;17.58;;;11.10;62.00;;;;;;5059544;28;20066;-50
2022/03/28 06:10:23;;;;;;;24.42;17.33;;;11.10;61.20;;;;;;5058888;28;20017;-51
2022/03/28 06:12:49;;;;;;;22.80;15.95;;;11.10;62.50;;;;;;5059168;28;20024;-49
2022/03/28 06:15:15;;;;;;;23.58;17.75;;;11.10;61.90;;;;;;5059445;28;20090;-54
2022/03/28 06:17:43;;;;;;;27.85;17.20;;;11.10;61.80;;;;;;5059040;28;20021;-49
2022/03/28 06:20:10;;;;;;;25.80;17.02;;;11.10;63.20;;;;;;5057562;28;20032;-48
2022/03/28 06:22:36;;;;;;;25.83;16.83;;;11.20;62.10;;;;;;5058210;28;20100;-50
2022/03/28 06:25:03;;;;;;;25.15;17.38;;;11.20;62.50;;;;;;5057005;28;20068;-48
2022/03/28 06:27:29;;;;;;;25.45;17.48;;;11.20;63.30;;;;;;5059245;28;20019;-49
2022/03/28 06:29:55;;;;;;;25.55;17.17;;;11.20;63.40;;;;;;5059463;28;20024;-51
2022/03/28 06:32:22;;;;;;;27.10;17.90;;;11.20;63.30;;;;;;5059223;28;20547;-50
2022/03/28 06:34:48;;;;;;;25.75;17.38;;;11.20;62.40;;;;;;5059102;28;20029;-47
2022/03/28 06:37:17;;;;;;;25.63;17.67;;;11.30;63.00;;;;;;5059174;28;20075;-47
2022/03/28 06:39:43;;;;;;;23.90;17.08;;;11.30;62.20;;;;;;5059011;28;20029;-50
2022/03/28 06:42:10;;;;;;;25.08;16.55;;;11.30;63.10;;;;;;5059189;28;20108;-47
2022/03/28 06:44:36;;;;;;;25.50;17.60;;;11.40;61.90;;;;;;5059466;28;20078;-49
2022/03/28 06:47:02;;;;;;;24.20;17.70;;;11.40;62.50;;;;;;5058955;28;20021;-48
2022/03/28 06:49:29;;;;;;;24.42;17.58;;;11.50;62.30;;;;;;5059388;28;20090;-49
2022/03/28 06:51:54;;;;;;;22.85;16.85;;;11.50;61.90;;;;;;5059109;28;20051;-47
2022/03/28 06:54:20;;;;;;;24.17;16.30;;;11.60;62.60;;;;;;5059117;28;20025;-49
2022/03/28 06:56:46;;;;;;;28.70;17.60;;;11.70;62.30;;;;;;5058698;28;20031;-52
2022/03/28 06:59:13;;;;;;;25.73;17.60;;;11.70;62.50;;;;;;5058954;28;20036;-51
2022/03/28 07:01:41;;;;;;;26.48;17.60;;;11.70;63.00;;;;;;5058669;28;20104;-50
2022/03/28 07:04:10;;;;;;;24.80;17.58;;;11.80;62.40;;;;;;5058855;28;20048;-49
2022/03/28 07:06:38;;;;;;;27.98;18.60;;;11.80;62.80;;;;;;5058382;28;20507;-51
2022/03/28 07:09:05;;;;;;;25.20;19.33;;;11.90;63.60;;;;;;5058773;28;20104;-51
2022/03/28 07:11:34;;;;;;;23.00;17.48;;;11.90;62.80;;;;;;5058501;28;20086;-52
2022/03/28 07:14:00;;;;;;;25.02;17.40;;;12.00;62.10;;;;;;5058477;28;20029;-53
2022/03/28 07:16:26;;;;;;;25.08;17.42;;;12.10;62.60;;;;;;5058872;28;20021;-49
2022/03/28 07:18:51;;;;;;;24.65;17.85;;;12.10;62.60;;;;;;5058387;28;20086;-50
2022/03/28 07:21:17;;;;;;;27.50;19.10;;;12.20;62.60;;;;;;5057907;28;20492;-51
2022/03/28 07:23:43;;;;;;;25.38;17.63;;;12.30;62.00;;;;;;5058471;28;20029;-50
2022/03/28 07:26:10;;;;;;;25.70;18.70;;;12.40;62.50;;;;;;5058110;28;20072;-51
2022/03/28 07:28:39;;;;;;;23.98;18.02;;;12.40;61.10;;;;;;5058207;28;20040;-53
2022/03/28 07:31:11;;;;;;;26.17;17.98;;;12.50;61.60;;;;;;5058162;28;20021;-50
2022/03/28 07:33:40;;;;;;;25.30;18.25;;;12.50;61.90;;;;;;5058287;28;20025;-49
2022/03/28 07:36:08;;;;;;;25.23;18.60;;;12.60;61.60;;;;;;5058557;28;20025;-48
2022/03/28 07:38:35;;;;;;;22.73;16.73;;;12.60;60.50;;;;;;5058261;28;20108;-49
2022/03/28 07:41:02;;;;;;;24.70;17.48;;;12.60;62.10;;;;;;5058196;28;20028;-49
2022/03/28 07:43:28;;;;;;;23.88;17.77;;;12.70;61.80;;;;;;5057858;28;20534;-49
2022/03/28 07:45:54;;;;;;;24.33;17.70;;;12.80;62.00;;;;;;5058177;28;20049;-53
2022/03/28 07:48:21;;;;;;;27.83;20.10;;;12.90;61.50;;;;;;5058316;28;20033;-50
2022/03/28 07:50:47;;;;;;;25.05;18.50;;;12.90;61.20;;;;;;5057786;28;20512;-49
2022/03/28 07:53:14;;;;;;;24.42;17.73;;;13.00;60.90;;;;;;5057739;28;20052;-50
2022/03/28 07:55:41;;;;;;;21.70;16.73;;;13.00;61.90;;;;;;5058544;28;20079;-49
2022/03/28 07:58:07;;;;;;;23.20;17.67;;;13.10;62.60;;;;;;5057744;28;20059;-48
2022/03/28 08:00:33;;;;;;;24.98;16.25;;;13.20;62.40;;;;;;5057536;28;20366;-48
2022/03/28 08:03:00;;;;;;;24.55;16.67;;;13.30;63.60;;;;;;5057785;28;20067;-47
2022/03/28 08:05:27;;;;;;;22.10;15.63;;;13.40;62.60;;;;;;5057755;28;20100;-49
2022/03/28 08:07:54;;;;;;;22.58;17.25;;;13.40;62.40;;;;;;5057847;28;20055;-48
2022/03/28 08:10:21;;;;;;;22.40;15.70;;;13.50;62.20;;;;;;5057577;28;20013;-51
2022/03/28 08:12:48;;;;;;;21.02;14.85;;;13.60;62.20;;;;;;5057586;28;20389;-49
2022/03/28 08:15:16;;;;;;;22.65;15.30;;;13.70;61.90;;;;;;5056313;28;20389;-51
2022/03/28 08:17:42;;;;;;;20.83;14.70;;;13.80;61.50;;;;;;5057342;28;20443;-48
2022/03/28 08:20:11;;;;;;;18.40;13.50;;;13.90;60.60;;;;;;5057474;28;20025;-48
2022/03/28 08:22:45;;;;;;;19.40;13.48;;;14.00;60.80;;;;;;5057401;28;20029;-47
2022/03/28 08:25:10;;;;;;;20.27;14.48;;;14.10;61.70;;;;;;5057385;28;20048;-49
2022/03/28 08:27:36;;;;;;;21.17;14.38;;;14.20;60.70;;;;;;5057451;28;20021;-49
2022/03/28 08:30:03;;;;;;;16.75;13.07;;;14.30;60.60;;;;;;5057494;28;20053;-51
2022/03/28 08:32:29;;;;;;;19.85;13.73;;;14.40;61.90;;;;;;5057436;28;20369;-48
2022/03/28 08:34:55;;;;;;;19.42;13.88;;;14.50;61.00;;;;;;5061444;28;20068;-48
2022/03/28 08:37:21;;;;;;;22.02;13.65;;;14.70;61.10;;;;;;5061666;28;20469;-53
2022/03/28 08:39:54;;;;;;;19.95;14.68;;;14.80;61.00;;;;;;5061576;28;20043;-50
2022/03/28 08:42:24;;;;;;;18.98;13.77;;;15.00;60.70;;;;;;5061350;28;20037;-49
2022/03/28 08:44:51;;;;;;;19.05;13.10;;;15.10;61.00;;;;;;5061293;28;20021;-48
2022/03/28 08:47:18;;;;;;;20.83;14.57;;;15.20;60.10;;;;;;5061521;28;20116;-51
2022/03/28 08:49:50;;;;;;;19.50;12.63;;;15.30;60.40;;;;;;5060496;28;20388;-50
2022/03/28 08:52:16;;;;;;;19.98;12.88;;;15.40;60.00;;;;;;5060637;28;20452;-48
2022/03/28 08:54:43;;;;;;;19.38;13.25;;;15.60;59.80;;;;;;5060965;28;20028;-51
2022/03/28 08:57:11;;;;;;;16.92;12.70;;;15.70;59.90;;;;;;5060763;28;20098;-51
2022/03/28 08:59:36;;;;;;;18.45;13.88;;;15.80;59.80;;;;;;5060741;28;20013;-47
2022/03/28 09:02:02;;;;;;;18.38;12.60;;;16.00;59.10;;;;;;5060833;28;20044;-49
2022/03/28 09:04:28;;;;;;;19.80;13.05;;;16.10;60.10;;;;;;5060565;28;20385;-52
2022/03/28 09:06:56;;;;;;;19.85;13.18;;;16.30;58.40;;;;;;5060466;28;20029;-53
2022/03/28 09:09:27;;;;;;;20.85;13.90;;;16.50;57.90;;;;;;5060517;28;20048;-47
2022/03/28 09:11:58;;;;;;;19.52;13.82;;;16.60;58.60;;;;;;5060402;28;20035;-49
2022/03/28 09:14:28;;;;;;;19.35;13.05;;;16.80;57.10;;;;;;5060638;28;20496;-52
2022/03/28 09:17:01;;;;;;;19.85;12.73;;;16.90;57.50;;;;;;5059813;28;20094;-53
2022/03/28 09:19:41;;;;;;;18.00;13.15;;;17.00;56.80;;;;;;5060371;28;20091;-52
2022/03/28 09:22:12;;;;;;;20.27;12.07;;;17.20;57.30;;;;;;5060186;28;20043;-50
2022/03/28 09:24:38;;;;;;;19.90;12.18;;;17.40;57.30;;;;;;5060206;28;20449;-51
2022/03/28 09:27:18;;;;;;;17.42;11.63;;;17.60;57.20;;;;;;5060276;28;20025;-51
2022/03/28 09:30:02;;;;;;;17.05;11.77;;;17.80;56.80;;;;;;5060157;28;20025;-53
2022/03/28 09:32:38;;;;;;;;;;;18.10;56.70;;;;;;5060240;28;20040;-49
2022/03/28 09:35:13;;;;;;;18.63;11.52;;;18.40;55.70;;;;;;5060294;28;20289;-49
2022/03/28 09:38:05;;;;;;;18.15;11.27;;;18.60;55.50;;;;;;5060316;28;20035;-49
2022/03/28 09:40:33;;;;;;;15.60;11.45;;;18.80;54.90;;;;;;5060060;28;20055;-49
2022/03/28 09:43:01;;;;;;;14.63;10.52;;;18.90;54.20;;;;;;5059449;28;20029;-50
2022/03/28 09:45:37;;;;;;;18.42;10.52;;;19.10;54.20;;;;;;5059345;28;20487;-50
2022/03/28 09:48:09;;;;;;;15.68;9.95;;;19.20;53.80;;;;;;5059701;28;20025;-47
2022/03/28 09:50:41;;;;;;;15.38;10.88;;;19.30;54.10;;;;;;5059591;28;20481;-49
2022/03/28 09:53:12;;;;;;;16.45;9.80;;;19.50;52.60;;;;;;5059810;28;20070;-51
2022/03/28 09:55:55;;;;;;;15.35;8.75;;;19.50;52.10;;;;;;5059500;28;20491;-50
2022/03/28 09:58:48;;;;;;;14.65;9.02;;;19.60;52.20;;;;;;5059444;28;20051;-47
2022/03/28 10:01:19;;;;;;;16.00;8.18;;;19.60;51.50;;;;;;5059832;28;20028;-48
2022/03/28 10:03:48;;;;;;;11.95;8.65;;;19.70;51.10;;;;;;5059443;28;20036;-49
2022/03/28 10:06:14;;;;;;;14.23;8.13;;;19.70;51.00;;;;;;5059359;28;20093;-50
2022/03/28 10:08:41;;;;;;;13.05;8.55;;;19.80;51.30;;;;;;5059542;28;20045;-49
2022/03/28 10:11:08;;;;;;;16.95;7.88;;;19.80;51.90;;;;;;5059312;28;20021;-52
2022/03/28 10:13:34;;;;;;;16.85;8.35;;;19.90;50.30;;;;;;5059465;28;20090;-52
2022/03/28 10:16:02;;;;;;;16.27;8.02;;;20.00;51.10;;;;;;5059436;28;20082;-50
2022/03/28 10:18:32;;;;;;;16.17;7.65;;;20.00;48.80;;;;;;5059308;28;20033;-47
2022/03/28 10:21:06;;;;;;;13.88;8.77;;;19.80;49.90;;;;;;5059329;28;20063;-50
2022/03/28 10:23:37;;;;;;;13.98;7.72;;;19.70;51.30;;;;;;5059161;28;20037;-53
2022/03/28 10:26:08;;;;;;;15.60;7.75;;;19.50;48.70;;;;;;5058987;28;20090;-52
2022/03/28 10:28:35;;;;;;;17.17;8.18;;;19.40;50.00;;;;;;5058792;28;20048;-52
2022/03/28 10:31:16;;;;;;;16.90;8.07;;;19.30;50.60;;;;;;5059368;28;20020;-51
2022/03/28 10:33:52;;;;;;;19.15;8.25;;;19.20;50.50;;;;;;5058763;28;20032;-52
2022/03/28 10:36:24;;;;;;;13.70;7.70;;;19.20;50.40;;;;;;5058879;28;20032;-49
2022/03/28 10:38:51;;;;;;;14.93;7.68;;;19.20;50.90;;;;;;5058368;28;20044;-53
2022/03/28 10:41:19;;;;;;;18.40;7.88;;;19.40;51.40;;;;;;5057692;28;20104;-51
2022/03/28 10:43:46;;;;;;;13.82;7.20;;;19.70;51.10;;;;;;5057738;28;20021;-52
2022/03/28 10:46:14;;;;;;;18.50;8.20;;;20.00;50.10;;;;;;5058914;28;20017;-48
2022/03/28 10:48:39;;;;;;;14.77;8.00;;;20.20;49.60;;;;;;5058521;28;20021;-51
2022/03/28 10:51:16;;;;;;;16.30;7.25;;;20.60;49.90;;;;;;5058254;28;20035;-51
2022/03/28 10:53:47;;;;;;;14.00;7.35;;;21.00;49.70;;;;;;5058663;28;20029;-49
2022/03/28 10:56:59;;;;;;;14.93;8.05;;;21.50;48.50;;;;;;5056957;28;20457;-55
2022/03/28 10:59:26;;;;;;;16.60;8.10;;;21.90;48.50;;;;;;5056010;28;20108;-53
2022/03/28 11:01:52;;;;;;;15.20;7.50;;;22.30;47.70;;;;;;5056154;28;20447;-52
2022/03/28 11:04:22;;;;;;;15.35;7.70;;;22.50;47.90;;;;;;5057243;28;20021;-50
2022/03/28 11:07:03;;;;;;;17.23;8.10;;;22.60;46.00;;;;;;5057723;28;20025;-51
2022/03/28 11:09:53;;;;;;;12.77;7.03;;;22.60;46.50;;;;;;5057618;28;20029;-55
2022/03/28 11:12:39;;;;;;;16.27;8.23;;;22.60;45.60;;;;;;5057621;28;20029;-52
2022/03/28 11:15:11;;;;;;;20.35;7.80;;;22.40;45.30;;;;;;5058566;28;20108;-48
2022/03/28 11:17:38;;;;;;;15.10;7.25;;;22.40;46.20;;;;;;5058005;28;20047;-48
2022/03/28 11:20:18;;;;;;;15.75;6.50;;;22.30;44.20;;;;;;5058115;28;20025;-49
2022/03/28 11:22:49;;;;;;;14.57;7.05;;;22.50;46.30;;;;;;5058072;28;20013;-53
2022/03/28 11:25:28;;;;;;;15.57;7.80;;;22.80;45.30;;;;;;5057714;28;20047;-52
2022/03/28 11:28:12;;;;;;;17.30;7.22;;;23.00;46.70;;;;;;5057679;28;20477;-51
2022/03/28 11:30:46;;;;;;;13.82;7.53;;;23.30;43.60;;;;;;5057855;28;20104;-54
2022/03/28 11:33:15;;;;;;;13.98;6.88;;;23.50;44.50;;;;;;5058042;28;20021;-51
2022/03/28 11:35:52;;;;;;;14.55;7.50;;;23.60;44.40;;;;;;5058155;28;20032;-52
2022/03/28 11:38:24;;;;;;;16.02;7.85;;;23.70;44.40;;;;;;5058033;28;20491;-51
2022/03/28 11:40:50;;;;;;;13.40;6.70;;;24.00;43.70;;;;;;5057684;28;20094;-53
2022/03/28 11:43:16;;;;;;;16.13;7.35;;;24.20;43.10;;;;;;5057668;28;20033;-53
2022/03/28 11:45:49;;;;;;;15.98;7.25;;;24.50;41.80;;;;;;5057862;28;20098;-50
2022/03/28 11:48:19;;;;;;;17.90;7.43;;;24.70;41.30;;;;;;5057646;28;20513;-53
2022/03/28 11:50:45;;;;;;;12.18;7.18;;;24.90;42.20;;;;;;5057791;28;20432;-52
2022/03/28 11:53:16;;;;;;;13.60;6.50;;;24.70;41.30;;;;;;5057754;28;20052;-51
2022/03/28 11:55:55;;;;;;;12.55;7.20;;;24.40;40.60;;;;;;5057679;28;20040;-49
2022/03/28 11:58:30;;;;;;;15.98;6.85;;;24.20;41.50;;;;;;5057943;28;20017;-49
2022/03/28 12:01:09;;;;;;;12.82;7.93;;;24.00;42.70;;;;;;5057656;28;20107;-47
2022/03/28 12:03:37;;;;;;;14.80;7.03;;;23.80;41.30;;;;;;5057322;28;20029;-50
2022/03/28 12:06:04;;;;;;;18.00;7.50;;;23.50;42.60;;;;;;5057533;28;20032;-50
2022/03/28 12:08:30;;;;;;;16.60;8.20;;;23.30;42.80;;;;;;5057606;28;20021;-52
2022/03/28 12:10:57;;;;;;;16.17;7.32;;;23.10;42.10;;;;;;5057262;28;20553;-49
2022/03/28 12:13:24;;;;;;;14.20;6.78;;;22.60;43.80;;;;;;5057497;28;20495;-50
2022/03/28 12:15:52;;;;;;;19.17;7.85;;;22.10;43.40;;;;;;5057241;28;20477;-49
2022/03/28 12:18:23;;;;;;;15.23;7.13;;;21.80;43.70;;;;;;5057480;28;20029;-52
2022/03/28 12:20:54;;;;;;;16.80;7.30;;;21.70;44.50;;;;;;5057680;28;20028;-51
2022/03/28 12:23:23;;;;;;;18.27;8.13;;;21.70;44.60;;;;;;5057486;28;20024;-50
2022/03/28 12:25:50;;;;;;;18.42;7.15;;;21.70;45.40;;;;;;5057031;28;20064;-48
2022/03/28 12:28:17;;;;;;;15.13;6.97;;;21.60;44.70;;;;;;5057142;28;20071;-51
2022/03/28 12:30:50;;;;;;;14.18;7.10;;;21.50;45.30;;;;;;5057577;28;20109;-50
2022/03/28 12:33:26;;;;;;;15.32;7.30;;;21.20;45.60;;;;;;5057102;28;20100;-52
2022/03/28 12:35:58;;;;;;;16.70;6.65;;;21.00;45.90;;;;;;5057208;28;20033;-48